createdAt,value
2019-01-25T00:00:21.060Z,93714.91
2019-01-25T00:02:47.753Z,93722.31
2019-01-25T00:05:14.397Z,93733.80
2019-01-25T00:07:41.050Z,93722.14
2019-01-25T00:10:07.709Z,93721.61
2019-01-25T00:12:34.349Z,93723.81
2019-01-25T00:15:01.009Z,93717.86
2019-01-25T00:17:27.659Z,93708.33
2019-01-25T00:19:55.800Z,93711.77
2019-01-25T00:22:22.293Z,93705.73
2019-01-25T00:24:47.735Z,93712.31
2019-01-25T00:27:14.379Z,93702.48
2019-01-25T00:29:41.019Z,93707.86
2019-01-25T00:32:07.700Z,93717.44
2019-01-25T00:34:34.337Z,93722.42
2019-01-25T00:37:01.000Z,93727.13
2019-01-25T00:39:27.689Z,93734.28
2019-01-25T00:41:54.329Z,93723.44
2019-01-25T00:44:20.981Z,93713.91
2019-01-25T00:46:47.620Z,93723.16
2019-01-25T00:49:14.272Z,93714.19
2019-01-25T00:51:40.924Z,93708.14
2019-01-25T00:54:07.587Z,93696.75
2019-01-25T00:56:34.241Z,93689.33
2019-01-25T00:59:00.927Z,93698.05
2019-01-25T01:01:27.581Z,93688.88
2019-01-25T01:03:54.253Z,93673.95
2019-01-25T01:06:20.913Z,93672.20
2019-01-25T01:08:47.592Z,93672.11
2019-01-25T01:11:14.238Z,93668.41
2019-01-25T01:13:40.904Z,93658.11
2019-01-25T01:16:07.542Z,93661.09
2019-01-25T01:18:34.250Z,93660.89
2019-01-25T01:21:00.906Z,93674.63
2019-01-25T01:23:27.551Z,93674.42
2019-01-25T01:25:54.203Z,93683.52
2019-01-25T01:28:20.863Z,93679.28
2019-01-25T01:30:47.509Z,93666.95
2019-01-25T01:33:14.171Z,93680.19
2019-01-25T01:35:40.814Z,93691.06
2019-01-25T01:38:07.457Z,93689.45
2019-01-25T01:40:34.107Z,93675.48
2019-01-25T01:43:00.755Z,93656.67
2019-01-25T01:45:27.439Z,93653.78
2019-01-25T01:47:54.081Z,93656.84
2019-01-25T01:50:20.722Z,93660.46
2019-01-25T01:52:47.407Z,93675.66
2019-01-25T01:55:14.082Z,93680.48
2019-01-25T01:57:40.754Z,93674.55
2019-01-25T02:00:07.393Z,93660.47
2019-01-25T02:02:34.042Z,93659.27
2019-01-25T02:05:00.736Z,93651.12
2019-01-25T02:07:27.383Z,93649.73
2019-01-25T02:09:54.047Z,93648.88
2019-01-25T02:12:20.787Z,93640.28
2019-01-25T02:14:47.463Z,93649.36
2019-01-25T02:17:14.112Z,93647.40
2019-01-25T02:19:41.384Z,93603.78
2019-01-25T02:22:08.027Z,93618.14
2019-01-25T02:24:34.673Z,93624.08
2019-01-25T02:27:01.351Z,93609.80
2019-01-25T02:29:27.983Z,93600.44
2019-01-25T02:31:54.638Z,93606.64
2019-01-25T02:34:21.276Z,93607.08
2019-01-25T02:36:47.980Z,93618.58
2019-01-25T02:39:14.624Z,93622.03
2019-01-25T02:41:41.281Z,93610.91
2019-01-25T02:44:07.934Z,93612.20
2019-01-25T02:46:34.579Z,93613.50
2019-01-25T02:49:01.222Z,93619.46
2019-01-25T02:51:27.913Z,93618.83
2019-01-25T02:53:54.561Z,93610.23
2019-01-25T02:56:21.202Z,93602.38
2019-01-25T02:58:47.838Z,93597.30
2019-01-25T03:01:14.490Z,93607.34
2019-01-25T03:03:41.130Z,93607.53
2019-01-25T03:06:07.772Z,93606.91
2019-01-25T03:08:34.524Z,93598.73
2019-01-25T03:11:02.186Z,93598.90
2019-01-25T03:13:28.829Z,93595.73
2019-01-25T03:15:55.515Z,93594.27
2019-01-25T03:18:22.208Z,93595.44
2019-01-25T03:20:48.850Z,93599.13
2019-01-25T03:23:15.525Z,93594.31
2019-01-25T03:25:42.158Z,93606.17
2019-01-25T03:28:08.802Z,93603.95
2019-01-25T03:30:35.450Z,93600.23
2019-01-25T03:33:02.091Z,93606.37
2019-01-25T03:35:28.780Z,93595.62
2019-01-25T03:37:55.425Z,93602.83
2019-01-25T03:40:22.077Z,93603.20
2019-01-25T03:42:48.716Z,93593.55
2019-01-25T03:45:15.407Z,93584.11
2019-01-25T03:47:42.043Z,93585.38
2019-01-25T03:50:08.693Z,93580.82
2019-01-25T03:52:35.329Z,93586.31
2019-01-25T03:55:01.977Z,93585.68
2019-01-25T03:57:28.625Z,93583.82
2019-01-25T03:59:55.268Z,93585.68
2019-01-25T04:02:21.918Z,93583.27
2019-01-25T04:04:48.567Z,93578.84
2019-01-25T04:07:15.205Z,93577.08
2019-01-25T04:09:42.043Z,93581.41
2019-01-25T04:12:08.686Z,93581.97
2019-01-25T04:14:35.367Z,93587.89
2019-01-25T04:17:02.022Z,93581.16
2019-01-25T04:19:28.660Z,93580.34
2019-01-25T04:21:55.309Z,93576.81
2019-01-25T04:24:21.989Z,93571.62
2019-01-25T04:26:48.650Z,93571.82
2019-01-25T04:29:15.307Z,93567.84
2019-01-25T04:31:41.954Z,93559.81
2019-01-25T04:34:08.602Z,93558.89
2019-01-25T04:36:35.238Z,93557.18
2019-01-25T04:39:01.923Z,93560.02
2019-01-25T04:41:28.595Z,93554.70
2019-01-25T04:43:58.148Z,93559.31
2019-01-25T04:46:24.813Z,93567.59
2019-01-25T04:48:51.457Z,93566.83
2019-01-25T04:51:18.093Z,93569.52
2019-01-25T04:53:44.737Z,93574.09
2019-01-25T04:56:11.376Z,93575.81
2019-01-25T04:58:38.076Z,93570.02
2019-01-25T05:01:04.725Z,93577.48
2019-01-25T05:03:31.375Z,93580.72
2019-01-25T05:05:58.022Z,93583.94
2019-01-25T05:08:24.700Z,93588.83
2019-01-25T05:10:51.344Z,93580.25
2019-01-25T05:13:18.130Z,93574.30
2019-01-25T05:15:44.774Z,93564.29
2019-01-25T05:18:11.412Z,93563.94
2019-01-25T05:20:38.074Z,93570.46
2019-01-25T05:23:04.715Z,93581.26
2019-01-25T05:25:31.410Z,93577.28
2019-01-25T05:27:58.047Z,93563.92
2019-01-25T05:30:24.681Z,93577.45
2019-01-25T05:32:51.333Z,93570.02
2019-01-25T05:35:18.019Z,93557.59
2019-01-25T05:37:44.674Z,93558.11
2019-01-25T05:40:11.321Z,93561.34
2019-01-25T05:42:37.971Z,93565.82
2019-01-25T05:45:04.623Z,93557.23
2019-01-25T05:47:31.295Z,93569.07
2019-01-25T05:49:57.928Z,93573.80
2019-01-25T05:52:24.585Z,93570.67
2019-01-25T05:54:51.226Z,93575.80
2019-01-25T05:57:29.223Z,93584.05
2019-01-25T05:59:55.881Z,93580.36
2019-01-25T06:02:22.524Z,93581.08
2019-01-25T06:04:49.180Z,93575.68
2019-01-25T06:07:18.796Z,93565.09
2019-01-25T06:09:45.637Z,93575.55
2019-01-25T06:12:12.329Z,93571.53
2019-01-25T06:14:39.014Z,93571.12
2019-01-25T06:17:05.685Z,93565.39
2019-01-25T06:19:32.325Z,93564.14
2019-01-25T06:21:59.066Z,93568.70
2019-01-25T06:24:25.731Z,93576.28
2019-01-25T06:26:52.389Z,93572.88
2019-01-25T06:29:19.249Z,93561.34
2019-01-25T06:31:45.895Z,93569.58
2019-01-25T06:34:12.560Z,93572.16
2019-01-25T06:36:39.202Z,93546.71
2019-01-25T06:39:05.869Z,93563.09
2019-01-25T06:41:32.521Z,93565.25
2019-01-25T06:43:59.196Z,93572.02
2019-01-25T06:46:25.848Z,93568.89
2019-01-25T06:48:52.499Z,93561.98
2019-01-25T06:51:19.196Z,93557.81
2019-01-25T06:53:45.847Z,93568.06
2019-01-25T06:56:12.500Z,93575.78
2019-01-25T06:58:39.197Z,93563.85
2019-01-25T07:01:05.846Z,93567.56
2019-01-25T07:03:32.483Z,93567.30
2019-01-25T07:05:59.167Z,93567.48
2019-01-25T07:08:25.809Z,93566.67
2019-01-25T07:10:52.462Z,93566.86
2019-01-25T07:13:19.115Z,93566.95
2019-01-25T07:15:45.760Z,93563.19
2019-01-25T07:18:12.549Z,93556.20
2019-01-25T07:20:39.190Z,93556.05
2019-01-25T07:23:05.842Z,93559.87
2019-01-25T07:25:32.566Z,93557.95
2019-01-25T07:27:59.188Z,93560.92
2019-01-25T07:30:25.847Z,93566.02
2019-01-25T07:32:52.928Z,93556.08
2019-01-25T07:35:19.594Z,93554.86
2019-01-25T07:37:46.310Z,93558.39
2019-01-25T07:40:13.100Z,93551.98
2019-01-25T07:42:42.278Z,93550.60
2019-01-25T07:45:09.969Z,93542.56
2019-01-25T07:47:36.722Z,93543.17
2019-01-25T07:50:03.512Z,93540.47
2019-01-25T07:52:30.260Z,93543.67
2019-01-25T07:54:57.089Z,93545.86
2019-01-25T07:57:23.922Z,93545.95
2019-01-25T07:59:50.593Z,93556.98
2019-01-25T08:02:17.302Z,93559.61
2019-01-25T08:04:44.000Z,93556.60
2019-01-25T08:07:10.667Z,93558.22
2019-01-25T08:09:37.341Z,93557.48
2019-01-25T08:12:07.616Z,93557.05
2019-01-25T08:14:30.664Z,93567.35
2019-01-25T08:16:57.397Z,93566.64
2019-01-25T08:19:24.042Z,93561.34
2019-01-25T08:21:50.698Z,93564.31
2019-01-25T08:24:17.432Z,93561.91
2019-01-25T08:26:44.085Z,93569.52
2019-01-25T08:29:10.739Z,93569.30
2019-01-25T08:31:37.410Z,93565.61
2019-01-25T08:34:04.110Z,93563.76
2019-01-25T08:36:30.787Z,93560.45
2019-01-25T08:38:57.546Z,93564.12
2019-01-25T08:41:24.214Z,93562.73
2019-01-25T08:43:50.829Z,93568.13
2019-01-25T08:46:17.623Z,93562.55
2019-01-25T08:48:44.246Z,93571.53
2019-01-25T08:51:11.324Z,93569.41
2019-01-25T08:53:37.721Z,93565.25
2019-01-25T08:56:04.555Z,93565.25
2019-01-25T08:58:31.097Z,93566.52
2019-01-25T09:00:57.868Z,93560.18
2019-01-25T09:03:24.514Z,93561.85
2019-01-25T09:05:54.297Z,93558.35
2019-01-25T09:08:21.525Z,93551.98
2019-01-25T09:10:48.167Z,93546.73
2019-01-25T09:13:14.907Z,93550.63
2019-01-25T09:15:41.550Z,93546.42
2019-01-25T09:18:08.210Z,93542.38
2019-01-25T09:20:34.849Z,93541.66
2019-01-25T09:23:01.505Z,93535.35
2019-01-25T09:25:29.225Z,93530.28
2019-01-25T09:27:55.970Z,93529.69
2019-01-25T09:30:22.635Z,93531.76
2019-01-25T09:32:49.289Z,93525.60
2019-01-25T09:35:15.960Z,93527.39
2019-01-25T09:37:42.616Z,93523.94
2019-01-25T09:40:09.287Z,93522.70
2019-01-25T09:42:35.937Z,93524.41
2019-01-25T09:45:02.575Z,93517.07
2019-01-25T09:47:29.224Z,93517.81
2019-01-25T09:49:55.974Z,93512.73
2019-01-25T09:52:22.615Z,93513.55
2019-01-25T09:54:49.270Z,93514.50
2019-01-25T09:57:15.920Z,93507.72
2019-01-25T09:59:42.569Z,93497.52
2019-01-25T10:02:09.216Z,93499.34
2019-01-25T10:04:35.883Z,93505.44
2019-01-25T10:07:02.531Z,93503.77
2019-01-25T10:09:29.208Z,93496.70
2019-01-25T10:11:55.864Z,93494.23
2019-01-25T10:14:22.540Z,93495.14
2019-01-25T10:16:49.196Z,93489.14
2019-01-25T10:19:15.854Z,93493.22
2019-01-25T10:21:42.503Z,93483.61
2019-01-25T10:24:09.177Z,93480.53
2019-01-25T10:26:38.172Z,93472.42
2019-01-25T10:29:04.829Z,93474.40
2019-01-25T10:31:31.507Z,93480.82
2019-01-25T10:33:58.115Z,93476.92
2019-01-25T10:36:24.784Z,93473.57
2019-01-25T10:38:51.436Z,93464.90
2019-01-25T10:41:19.487Z,93450.27
2019-01-25T10:43:44.804Z,93449.23
2019-01-25T10:46:11.466Z,93453.56
2019-01-25T10:48:38.157Z,93446.01
2019-01-25T10:51:04.840Z,93445.45
2019-01-25T10:53:31.539Z,93438.03
2019-01-25T10:55:58.289Z,93438.36
2019-01-25T10:58:25.037Z,93434.42
2019-01-25T11:00:51.694Z,93429.29
2019-01-25T11:03:18.431Z,93428.38
2019-01-25T11:05:45.159Z,93420.92
2019-01-25T11:08:11.859Z,93416.08
2019-01-25T11:10:38.532Z,93417.73
2019-01-25T11:13:05.281Z,93409.48
2019-01-25T11:15:32.011Z,93405.31
2019-01-25T11:17:58.673Z,93395.88
2019-01-25T11:20:25.331Z,93399.42
2019-01-25T11:22:52.023Z,93393.41
2019-01-25T11:25:18.675Z,93382.15
2019-01-25T11:27:45.391Z,93389.56
2019-01-25T11:30:12.030Z,93390.14
2019-01-25T11:32:38.785Z,93392.70
2019-01-25T11:35:05.433Z,93388.84
2019-01-25T11:37:32.149Z,93382.00
2019-01-25T11:39:58.818Z,93372.27
2019-01-25T11:42:25.649Z,93376.49
2019-01-25T11:44:52.354Z,93379.58
2019-01-25T11:47:19.035Z,93378.17
2019-01-25T11:49:45.723Z,93371.49
2019-01-25T11:52:12.400Z,93349.89
2019-01-25T11:54:39.064Z,93356.55
2019-01-25T11:57:05.844Z,93355.20
2019-01-25T11:59:32.453Z,93362.66
2019-01-25T12:01:59.106Z,93355.05
2019-01-25T12:04:25.834Z,93356.55
2019-01-25T12:06:52.494Z,93361.87
2019-01-25T12:09:19.208Z,93356.18
2019-01-25T12:11:45.888Z,93361.84
2019-01-25T12:14:12.552Z,93362.55
2019-01-25T12:16:39.205Z,93361.06
2019-01-25T12:19:05.844Z,93356.94
2019-01-25T12:21:32.498Z,93356.18
2019-01-25T12:23:59.147Z,93348.28
2019-01-25T12:26:25.925Z,93344.26
2019-01-25T12:28:52.666Z,93347.63
2019-01-25T12:31:19.545Z,93348.80
2019-01-25T12:33:46.249Z,93344.77
2019-01-25T12:36:12.952Z,93336.78
2019-01-25T12:38:39.658Z,93328.88
2019-01-25T12:41:06.322Z,93335.29
2019-01-25T12:43:35.280Z,93331.36
2019-01-25T12:46:01.824Z,93331.81
2019-01-25T12:48:31.262Z,93339.20
2019-01-25T12:50:58.099Z,93332.69
2019-01-25T12:53:24.886Z,93325.97
2019-01-25T12:55:51.730Z,93313.67
2019-01-25T12:58:18.393Z,93304.56
2019-01-25T13:00:45.038Z,93294.42
2019-01-25T13:03:11.736Z,93301.42
2019-01-25T13:05:38.425Z,93303.92
2019-01-25T13:08:05.112Z,93305.27
2019-01-25T13:10:31.861Z,93306.48
2019-01-25T13:12:58.605Z,93311.91
2019-01-25T13:15:26.013Z,93307.91
2019-01-25T13:17:52.808Z,93310.89
2019-01-25T13:20:19.547Z,93318.78
2019-01-25T13:22:48.528Z,93320.45
2019-01-25T13:25:15.280Z,93318.39
2019-01-25T13:27:42.120Z,93317.38
2019-01-25T13:30:08.821Z,93312.27
2019-01-25T13:32:36.001Z,93317.75
2019-01-25T13:35:02.766Z,93313.47
2019-01-25T13:37:31.540Z,93316.45
2019-01-25T13:39:56.089Z,93314.27
2019-01-25T13:42:22.748Z,93303.19
2019-01-25T13:44:49.415Z,93304.02
2019-01-25T13:47:16.105Z,93306.80
2019-01-25T13:49:42.793Z,93309.81
2019-01-25T13:52:09.455Z,93308.48
2019-01-25T13:54:36.092Z,93309.04
2019-01-25T13:57:02.886Z,93305.27
2019-01-25T13:59:29.628Z,93296.27
2019-01-25T14:01:56.326Z,93296.92
2019-01-25T14:04:22.980Z,93298.71
2019-01-25T14:06:49.636Z,93298.16
2019-01-25T14:09:16.962Z,93301.55
2019-01-25T14:11:42.953Z,93296.08
2019-01-25T14:14:09.632Z,93289.41
2019-01-25T14:16:36.330Z,93280.03
2019-01-25T14:19:02.997Z,93293.03
2019-01-25T14:21:29.749Z,93296.38
2019-01-25T14:23:56.487Z,93293.89
2019-01-25T14:26:23.145Z,93283.59
2019-01-25T14:28:50.234Z,93286.44
2019-01-25T14:31:16.869Z,93278.50
2019-01-25T14:33:43.529Z,93271.36
2019-01-25T14:36:10.278Z,93278.74
2019-01-25T14:38:36.948Z,93268.16
2019-01-25T14:41:03.624Z,93266.25
2019-01-25T14:43:30.280Z,93266.11
2019-01-25T14:45:56.929Z,93262.83
2019-01-25T14:48:23.669Z,93262.95
2019-01-25T14:50:50.337Z,93260.41
2019-01-25T14:53:17.194Z,93265.64
2019-01-25T14:55:43.928Z,93255.48
2019-01-25T14:58:10.582Z,93244.37
2019-01-25T15:00:37.253Z,93255.86
2019-01-25T15:03:03.896Z,93244.91
2019-01-25T15:05:32.873Z,93250.81
2019-01-25T15:07:59.509Z,93240.56
2019-01-25T15:10:26.252Z,93233.41
2019-01-25T15:12:52.936Z,93239.20
2019-01-25T15:15:19.591Z,93247.56
2019-01-25T15:17:46.281Z,93235.13
2019-01-25T15:20:13.006Z,93233.88
2019-01-25T15:22:39.658Z,93232.80
2019-01-25T15:25:06.297Z,93226.59
2019-01-25T15:27:32.957Z,93219.95
2019-01-25T15:29:59.615Z,93222.56
2019-01-25T15:32:26.319Z,93225.93
2019-01-25T15:34:52.964Z,93231.42
2019-01-25T15:37:19.637Z,93224.17
2019-01-25T15:39:46.283Z,93227.39
2019-01-25T15:42:12.928Z,93218.30
2019-01-25T15:44:39.584Z,93216.00
2019-01-25T15:47:06.234Z,93220.78
2019-01-25T15:49:32.888Z,93218.56
2019-01-25T15:51:59.524Z,93218.83
2019-01-25T15:54:26.182Z,93204.55
2019-01-25T15:56:52.902Z,93210.72
2019-01-25T15:59:19.544Z,93210.81
2019-01-25T16:01:46.208Z,93212.57
2019-01-25T16:04:12.857Z,93219.81
2019-01-25T16:06:39.493Z,93215.87
2019-01-25T16:09:06.152Z,93225.61
2019-01-25T16:11:34.323Z,93231.51
2019-01-25T16:13:59.454Z,93227.56
2019-01-25T16:16:26.198Z,93228.91
2019-01-25T16:18:52.935Z,93235.95
2019-01-25T16:21:19.585Z,93231.20
2019-01-25T16:23:46.229Z,93232.93
2019-01-25T16:26:12.874Z,93240.55
2019-01-25T16:28:39.540Z,93246.35
2019-01-25T16:31:06.200Z,93239.02
2019-01-25T16:33:33.218Z,93251.45
2019-01-25T16:35:59.862Z,93248.80
2019-01-25T16:38:26.501Z,93250.56
2019-01-25T16:40:53.163Z,93256.19
2019-01-25T16:43:19.845Z,93261.70
2019-01-25T16:45:46.506Z,93256.83
2019-01-25T16:48:13.146Z,93254.33
2019-01-25T16:50:39.993Z,93257.20
2019-01-25T16:53:06.437Z,93258.14
2019-01-25T16:55:33.081Z,93266.81
2019-01-25T16:57:59.734Z,93259.98
2019-01-25T17:00:26.369Z,93260.18
2019-01-25T17:02:53.044Z,93270.95
2019-01-25T17:05:19.685Z,93261.85
2019-01-25T17:07:46.365Z,93264.40
2019-01-25T17:10:13.004Z,93260.03
2019-01-25T17:12:39.668Z,93262.87
2019-01-25T17:15:06.325Z,93259.66
2019-01-25T17:17:32.972Z,93258.47
2019-01-25T17:19:59.620Z,93257.98
2019-01-25T17:22:26.271Z,93255.53
2019-01-25T17:24:52.923Z,93256.41
2019-01-25T17:27:19.558Z,93249.09
2019-01-25T17:29:46.259Z,93248.06
2019-01-25T17:32:12.900Z,93257.39
2019-01-25T17:34:39.563Z,93259.20
2019-01-25T17:37:06.207Z,93256.56
2019-01-25T17:39:32.893Z,93264.63
2019-01-25T17:41:59.520Z,93258.59
2019-01-25T17:44:26.411Z,93255.45
2019-01-25T17:46:53.084Z,93260.78
2019-01-25T17:49:19.739Z,93260.78
2019-01-25T17:51:46.374Z,93255.03
2019-01-25T17:54:13.025Z,93244.96
2019-01-25T17:56:39.667Z,93261.34
2019-01-25T17:59:06.347Z,93256.89
2019-01-25T18:01:33.027Z,93259.43
2019-01-25T18:03:59.679Z,93251.17
2019-01-25T18:06:26.331Z,93253.97
2019-01-25T18:08:52.968Z,93245.03
2019-01-25T18:11:19.771Z,93245.63
2019-01-25T18:13:46.412Z,93242.38
2019-01-25T18:16:13.119Z,93256.16
2019-01-25T18:18:39.773Z,93241.34
2019-01-25T18:21:06.466Z,93248.97
2019-01-25T18:23:33.104Z,93252.49
2019-01-25T18:25:59.745Z,93242.98
2019-01-25T18:28:26.463Z,93246.55
2019-01-25T18:30:53.100Z,93237.65
2019-01-25T18:33:19.737Z,93241.78
2019-01-25T18:35:46.411Z,93239.36
2019-01-25T18:38:13.073Z,93241.78
2019-01-25T18:40:39.725Z,93235.98
2019-01-25T18:43:06.417Z,93236.17
2019-01-25T18:45:33.059Z,93225.91
2019-01-25T18:47:59.718Z,93233.80
2019-01-25T18:50:26.371Z,93232.63
2019-01-25T18:52:53.010Z,93232.59
2019-01-25T18:55:19.663Z,93232.16
2019-01-25T18:57:46.370Z,93230.66
2019-01-25T19:00:13.026Z,93230.28
2019-01-25T19:02:39.677Z,93235.04
2019-01-25T19:05:06.334Z,93228.56
2019-01-25T19:07:32.972Z,93238.06
2019-01-25T19:09:59.656Z,93237.28
2019-01-25T19:12:26.297Z,93231.45
2019-01-25T19:14:52.940Z,93238.37
2019-01-25T19:17:19.671Z,93231.78
2019-01-25T19:19:46.358Z,93233.55
2019-01-25T19:22:13.001Z,93227.94
2019-01-25T19:24:39.669Z,93229.61
2019-01-25T19:27:06.305Z,93232.81
2019-01-25T19:29:32.968Z,93232.90
2019-01-25T19:31:59.629Z,93246.80
2019-01-25T19:34:26.317Z,93244.39
2019-01-25T19:36:52.958Z,93237.59
2019-01-25T19:39:19.617Z,93243.02
2019-01-25T19:41:46.257Z,93246.44
2019-01-25T19:44:12.898Z,93246.30
2019-01-25T19:46:39.542Z,93247.69
2019-01-25T19:49:06.202Z,93242.30
2019-01-25T19:51:32.841Z,93241.11
2019-01-25T19:53:59.538Z,93245.73
2019-01-25T19:56:26.182Z,93244.84
2019-01-25T19:58:52.819Z,93249.86
2019-01-25T20:01:19.474Z,93246.34
2019-01-25T20:03:46.161Z,93258.86
2019-01-25T20:06:12.802Z,93256.58
2019-01-25T20:08:39.448Z,93262.14
2019-01-25T20:11:06.096Z,93265.14
2019-01-25T20:13:32.749Z,93266.96
2019-01-25T20:15:59.386Z,93264.39
2019-01-25T20:18:26.060Z,93264.39
2019-01-25T20:20:52.700Z,93263.05
2019-01-25T20:23:19.343Z,93262.77
2019-01-25T20:25:45.993Z,93255.72
2019-01-25T20:28:12.650Z,93250.72
2019-01-25T20:30:39.300Z,93245.91
2019-01-25T20:33:05.964Z,93254.80
2019-01-25T20:35:32.598Z,93262.06
2019-01-25T20:37:59.286Z,93264.22
2019-01-25T20:40:25.929Z,93263.45
2019-01-25T20:42:52.573Z,93263.95
2019-01-25T20:45:19.210Z,93249.68
2019-01-25T20:47:45.857Z,93246.94
2019-01-25T20:50:12.531Z,93264.97
2019-01-25T20:52:39.170Z,93268.64
2019-01-25T20:55:05.851Z,93244.96
2019-01-25T20:57:32.528Z,93271.92
2019-01-25T20:59:59.178Z,93279.52
2019-01-25T21:02:25.811Z,93266.36
2019-01-25T21:04:52.500Z,93273.13
2019-01-25T21:07:19.160Z,93269.05
2019-01-25T21:09:45.798Z,93276.88
2019-01-25T21:12:12.482Z,93279.93
2019-01-25T21:14:39.132Z,93278.30
2019-01-25T21:17:05.838Z,93283.45
2019-01-25T21:19:32.482Z,93286.23
2019-01-25T21:21:59.121Z,93283.73
2019-01-25T21:24:25.801Z,93301.75
2019-01-25T21:26:52.484Z,93293.50
2019-01-25T21:29:19.128Z,93289.79
2019-01-25T21:31:49.188Z,93284.57
2019-01-25T21:34:15.847Z,93286.67
2019-01-25T21:36:42.540Z,93281.48
2019-01-25T21:39:09.179Z,93278.20
2019-01-25T21:41:35.830Z,93285.16
2019-01-25T21:44:02.467Z,93281.85
2019-01-25T21:46:29.123Z,93284.64
2019-01-25T21:48:55.781Z,93286.09
2019-01-25T21:51:22.450Z,93290.44
2019-01-25T21:53:49.126Z,93298.27
2019-01-25T21:56:15.794Z,93305.48
2019-01-25T21:58:42.477Z,93305.77
2019-01-25T22:01:09.117Z,93307.22
2019-01-25T22:03:35.827Z,93310.73
2019-01-25T22:06:02.513Z,93308.61
2019-01-25T22:08:29.176Z,93305.42
2019-01-25T22:10:55.869Z,93306.69
2019-01-25T22:13:22.549Z,93302.34
2019-01-25T22:15:51.139Z,93303.17
2019-01-25T22:18:15.892Z,93311.91
2019-01-25T22:20:42.552Z,93319.14
2019-01-25T22:23:09.237Z,93321.45
2019-01-25T22:25:35.893Z,93320.44
2019-01-25T22:28:02.542Z,93315.80
2019-01-25T22:30:29.188Z,93319.45
2019-01-25T22:32:55.825Z,93318.59
2019-01-25T22:35:22.483Z,93309.69
2019-01-25T22:37:49.116Z,93308.02
2019-01-25T22:40:15.769Z,93305.46
2019-01-25T22:42:42.408Z,93315.93
2019-01-25T22:45:09.099Z,93311.79
2019-01-25T22:47:35.739Z,93315.93
2019-01-25T22:50:02.400Z,93319.55
2019-01-25T22:52:29.046Z,93310.13
2019-01-25T22:54:55.699Z,93311.52
2019-01-25T22:57:22.341Z,93316.98
2019-01-25T22:59:49.075Z,93314.66
2019-01-25T23:02:15.759Z,93321.24
2019-01-25T23:04:42.405Z,93330.41
2019-01-25T23:07:09.045Z,93318.38
2019-01-25T23:09:35.848Z,93312.94
2019-01-25T23:12:02.480Z,93310.03
2019-01-25T23:14:29.121Z,93310.03
2019-01-25T23:16:55.786Z,93311.05
2019-01-25T23:19:22.436Z,93324.89
2019-01-25T23:21:50.315Z,93333.88
2019-01-25T23:24:15.760Z,93327.58
2019-01-25T23:26:42.398Z,93337.67
2019-01-25T23:29:09.056Z,93337.95
2019-01-25T23:31:35.747Z,93335.54
2019-01-25T23:34:02.424Z,93339.89
2019-01-25T23:36:29.064Z,93350.24
2019-01-25T23:38:55.714Z,93351.48
2019-01-25T23:41:22.369Z,93350.20
2019-01-25T23:43:49.019Z,93350.67
2019-01-25T23:46:15.665Z,93357.06
2019-01-25T23:48:42.316Z,93352.03
2019-01-25T23:51:08.960Z,93356.41
2019-01-25T23:53:35.604Z,93370.42
2019-01-25T23:56:02.295Z,93374.13
2019-01-25T23:58:28.939Z,93380.34
